首页
METAR-TAF:

METAR-TAF

机场 :

诺曼·曼利国际机场

京斯敦, 牙买加

纬度: 17-56N, 经度: 076-47W, 海拔: 3米

当前天气观测

该预报发布于39分钟前的21:00 UTC
风速5节,风向
温度 31°C
湿度 66%
气压 1009 hPa
能见度10公里或以上
散云层高于2200英尺

METAR: MKJP 212100Z 19005KT 9999 SCT022 31/24 Q1009

时间: 16:39 (21:39 UTC)

预报

该预报发布于4小时和24分钟前的17:15 UTC
预报有效从21日的 18点(UTC)到 22日的 18点(UTC)
风速15节,风向
能见度10公里或以上
少量云层高于2200英尺
成为
从 22日的 00点(UTC)到 22日的 02点(UTC)
风速3节,风向北转西北
成为
从 22日的 14点(UTC)到 22日的 16点(UTC)
风速10节,风向南转西南

TAF: MKJP 211715Z 2118/2218 17015KT 9999 FEW022 BECMG 2200/2202 34003KT BECMG 2214/2216 20010KT

超过4000个机场的气象观测和天气预报(METAR&TAF报告)。

可查询的气象台以黄色和红色小点在地图上表示。

将鼠标移到小点上方,可查看气象台名称。

然后点击查看天气观测和预报。

如需切换地图:点击带黑十字的绿色按钮放大地图;点击带横线的绿色按钮缩小地图;或者点击绿色箭头查看邻近地区的地图。


METAR-TAF: